createdAt,value
2023-05-20T00:00:37.866Z,100353.44
2023-05-20T00:05:40.724Z,100357.91
2023-05-20T00:10:43.223Z,100249.88
2023-05-20T00:15:46.621Z,100381.59
2023-05-20T00:20:49.023Z,100312.16
2023-05-20T00:25:51.318Z,100357.84
2023-05-20T00:30:53.785Z,100334.06
2023-05-20T00:35:56.370Z,100372.75
2023-05-20T00:40:58.822Z,100303.84
2023-05-20T00:46:01.796Z,100382.31
2023-05-20T00:51:05.386Z,100383.13
2023-05-20T00:56:08.712Z,100377.91
2023-05-20T01:01:11.861Z,100340.94
2023-05-20T01:06:14.408Z,100360.31
2023-05-20T01:11:31.796Z,100356.84
2023-05-20T01:16:36.216Z,100352.38
2023-05-20T01:21:39.039Z,100294.34
2023-05-20T01:26:41.643Z,100292.59
2023-05-20T01:31:44.262Z,100317.13
2023-05-20T01:36:47.812Z,100327.72
2023-05-20T01:41:50.398Z,100400.53
2023-05-20T01:46:53.093Z,100405.72
2023-05-20T01:51:56.021Z,100389.13
2023-05-20T01:56:58.636Z,100303.78
2023-05-20T02:02:01.164Z,100395.19
2023-05-20T02:07:04.029Z,100385.59
2023-05-20T02:12:07.207Z,100368.81
2023-05-20T02:17:10.736Z,100380.31
2023-05-20T02:22:14.294Z,100386.44
2023-05-20T02:27:19.304Z,100361.84
2023-05-20T02:32:21.853Z,100367.91
2023-05-20T02:37:24.409Z,100337.25
2023-05-20T02:42:26.862Z,100374.81
2023-05-20T02:47:29.672Z,100381.06
2023-05-20T02:52:32.171Z,100364.41
2023-05-20T02:57:38.471Z,100388.97
2023-05-20T03:02:42.727Z,100329.16
2023-05-20T03:07:46.825Z,100340.75
2023-05-20T03:12:49.448Z,100334.56
2023-05-20T03:17:51.868Z,100325.75
2023-05-20T03:22:54.283Z,100367.06
2023-05-20T03:27:58.668Z,100338.06
2023-05-20T03:33:03.171Z,100373.16
2023-05-20T03:38:05.939Z,100397.78
2023-05-20T03:43:10.920Z,100382.13
2023-05-20T03:48:13.535Z,100393.44
2023-05-20T03:53:16.202Z,100394.38
2023-05-20T03:58:21.011Z,100358.31
2023-05-20T04:03:23.921Z,100398.78
2023-05-20T04:08:26.757Z,100356.59
2023-05-20T04:13:29.544Z,100327.59
2023-05-20T04:18:32.351Z,100349.59
2023-05-20T04:23:34.865Z,100333.75
2023-05-20T04:28:38.141Z,100171.22
2023-05-20T04:33:41.518Z,100411.13
2023-05-20T04:38:44.994Z,100341.84
2023-05-20T04:43:47.458Z,100367.31
2023-05-20T04:48:49.962Z,100375.31
2023-05-20T04:53:52.413Z,100403.50
2023-05-20T04:58:56.467Z,100405.31
2023-05-20T05:03:59.010Z,100401.03
2023-05-20T05:09:01.557Z,100368.56
2023-05-20T05:14:04.301Z,100323.91
2023-05-20T05:19:07.673Z,100317.00
2023-05-20T05:24:13.492Z,100331.06
2023-05-20T05:29:16.685Z,100385.53
2023-05-20T05:34:19.160Z,100382.97
2023-05-20T05:39:21.984Z,100267.16
2023-05-20T05:44:24.424Z,100388.31
2023-05-20T05:49:27.298Z,100340.13
2023-05-20T05:54:29.891Z,100384.06
2023-05-20T05:59:32.467Z,100261.25
2023-05-20T06:04:35.412Z,100379.81
2023-05-20T06:09:38.973Z,100360.56
2023-05-20T06:14:41.773Z,100358.88
2023-05-20T06:19:44.330Z,100344.03
2023-05-20T06:24:46.901Z,100304.72
2023-05-20T06:29:49.471Z,100296.06
2023-05-20T06:34:52.060Z,100320.72
2023-05-20T06:39:54.542Z,100370.75
2023-05-20T06:44:57.959Z,100308.53
2023-05-20T06:50:21.019Z,100372.56
2023-05-20T06:55:23.667Z,100269.97
2023-05-20T07:00:26.505Z,100322.59
2023-05-20T07:05:29.905Z,100368.09
2023-05-20T07:10:32.470Z,100345.31
2023-05-20T07:15:35.409Z,100344.41
2023-05-20T07:20:38.847Z,100377.63
2023-05-20T07:25:47.713Z,100374.13
2023-05-20T07:30:50.957Z,100370.56
2023-05-20T07:36:00.048Z,100327.59
2023-05-20T07:41:02.649Z,100297.75
2023-05-20T07:46:05.574Z,100375.63
2023-05-20T07:51:07.919Z,100353.66
2023-05-20T07:56:10.611Z,100264.34
2023-05-20T08:01:13.965Z,100328.16
2023-05-20T08:06:17.943Z,100331.47
2023-05-20T08:11:22.052Z,100229.88
2023-05-20T08:16:24.731Z,100285.81
2023-05-20T08:21:27.284Z,100326.91
2023-05-20T08:26:29.915Z,100333.03
2023-05-20T08:31:33.565Z,100259.47
2023-05-20T08:36:36.370Z,100325.03
2023-05-20T08:41:39.763Z,100349.56
2023-05-20T08:46:42.845Z,100325.94
2023-05-20T08:51:47.694Z,100248.25
2023-05-20T08:56:50.637Z,100320.03
2023-05-20T09:01:53.249Z,100355.94
2023-05-20T09:06:56.123Z,100323.69
2023-05-20T09:11:58.494Z,100321.97
2023-05-20T09:17:01.041Z,100351.66
2023-05-20T09:22:05.584Z,100361.25
2023-05-20T09:27:08.139Z,100338.41
2023-05-20T09:32:14.318Z,100348.97
2023-05-20T09:37:22.606Z,100320.03
2023-05-20T09:42:29.345Z,100363.75
2023-05-20T09:47:32.308Z,100364.63
2023-05-20T09:52:39.249Z,100364.53
2023-05-20T09:57:42.409Z,100287.47
2023-05-20T10:02:52.564Z,100359.25
2023-05-20T10:08:17.225Z,100363.72
2023-05-20T10:13:34.734Z,100358.53
2023-05-20T10:18:58.716Z,100366.44
2023-05-20T10:24:08.792Z,100375.31
2023-05-20T10:29:18.599Z,100354.31
2023-05-20T10:34:23.025Z,100381.47
2023-05-20T10:39:30.268Z,100377.03
2023-05-20T10:44:47.482Z,100369.97
2023-05-20T10:49:49.986Z,100377.78
2023-05-20T10:55:01.292Z,100360.94
2023-05-20T11:00:06.485Z,100364.38
2023-05-20T11:05:12.715Z,100352.97
2023-05-20T11:10:15.273Z,100327.59
2023-05-20T11:15:18.372Z,100364.47
2023-05-20T11:20:21.192Z,100363.78
2023-05-20T11:25:24.211Z,100379.59
2023-05-20T11:30:27.071Z,100387.59
2023-05-20T11:35:30.978Z,100350.03
2023-05-20T11:40:42.755Z,100264.31
2023-05-20T11:45:59.715Z,100393.84
2023-05-20T11:51:02.951Z,100375.38
2023-05-20T11:56:05.597Z,100343.91
2023-05-20T12:01:20.947Z,100383.31
2023-05-20T12:06:24.658Z,100377.28
2023-05-20T12:11:27.201Z,100367.69
2023-05-20T12:16:30.716Z,100401.00
2023-05-20T12:21:33.357Z,100372.16
2023-05-20T12:26:35.858Z,100365.22
2023-05-20T12:31:40.124Z,100369.72
2023-05-20T12:36:42.875Z,100424.09
2023-05-20T12:41:45.375Z,100414.47
2023-05-20T12:46:48.130Z,100338.25
2023-05-20T12:51:50.872Z,100401.31
2023-05-20T12:56:53.296Z,100283.09
2023-05-20T13:01:55.886Z,100378.56
2023-05-20T13:06:58.609Z,100378.56
2023-05-20T13:12:02.262Z,100323.38
2023-05-20T13:17:04.905Z,100386.41
2023-05-20T13:22:07.848Z,100389.97
2023-05-20T13:27:11.126Z,100347.88
2023-05-20T13:32:14.033Z,100328.59
2023-05-20T13:37:16.439Z,100353.97
2023-05-20T13:42:18.905Z,100338.19
2023-05-20T13:47:21.817Z,100315.44
2023-05-20T13:52:24.433Z,100348.72
2023-05-20T13:57:28.332Z,100369.75
2023-05-20T14:02:32.212Z,100382.91
2023-05-20T14:07:34.990Z,100357.44
2023-05-20T14:12:37.445Z,100325.94
2023-05-20T14:17:41.551Z,100332.91
2023-05-20T14:22:45.054Z,100342.53
2023-05-20T14:27:50.849Z,100369.66
2023-05-20T14:32:53.451Z,100341.59
2023-05-20T14:37:55.932Z,100365.22
2023-05-20T14:42:58.488Z,100338.06
2023-05-20T14:48:00.916Z,100215.47
2023-05-20T14:53:03.510Z,100311.75
2023-05-20T14:58:05.914Z,100348.53
2023-05-20T15:03:08.623Z,100350.28
2023-05-20T15:08:11.443Z,100354.66
2023-05-20T15:13:14.309Z,100329.25
2023-05-20T15:18:17.114Z,100343.28
2023-05-20T15:23:19.786Z,100294.25
2023-05-20T15:28:22.376Z,100310.84
2023-05-20T15:33:25.164Z,100328.28
2023-05-20T15:38:27.876Z,100270.53
2023-05-20T15:43:30.502Z,100301.16
2023-05-20T15:48:40.154Z,100288.03
2023-05-20T15:59:23.771Z,100321.28
2023-05-20T16:04:30.346Z,100255.66
2023-05-20T16:09:39.346Z,100330.13
2023-05-20T16:14:45.571Z,100304.75
2023-05-20T16:19:50.445Z,100303.03
2023-05-20T16:24:53.105Z,100290.78
2023-05-20T16:29:55.968Z,100327.59
2023-05-20T16:34:58.526Z,100332.84
2023-05-20T16:40:01.181Z,100327.59
2023-05-20T16:45:05.799Z,100253.25
2023-05-20T16:50:09.303Z,100297.00
2023-05-20T16:55:12.965Z,100339.97
2023-05-20T17:00:16.686Z,100282.19
2023-05-20T17:05:22.485Z,100343.53
2023-05-20T17:10:25.091Z,100354.94
2023-05-20T17:15:27.812Z,100319.91
2023-05-20T17:20:30.389Z,100350.59
2023-05-20T17:25:33.309Z,100223.56
2023-05-20T17:30:38.085Z,100326.06
2023-05-20T17:35:41.150Z,100355.88
2023-05-20T17:40:44.001Z,100327.84
2023-05-20T17:45:46.989Z,100333.97
2023-05-20T17:50:49.570Z,100299.78
2023-05-20T17:55:52.171Z,100224.41
2023-05-20T18:00:54.774Z,100338.31
2023-05-20T18:05:57.458Z,100306.75
2023-05-20T18:11:00.762Z,100343.56
2023-05-20T18:16:03.367Z,100341.78
2023-05-20T18:21:08.072Z,100335.63
2023-05-20T18:26:10.891Z,100283.91
2023-05-20T18:31:13.440Z,100328.59
2023-05-20T18:36:16.111Z,100326.84
2023-05-20T18:41:18.926Z,100289.13
2023-05-20T18:46:26.321Z,100275.97
2023-05-20T18:51:33.464Z,100274.22
2023-05-20T18:56:39.613Z,100225.16
2023-05-20T19:01:43.591Z,100291.75
2023-05-20T19:06:46.184Z,100293.50
2023-05-20T19:11:49.038Z,100234.78
2023-05-20T19:16:52.767Z,100238.31
2023-05-20T19:22:00.520Z,100233.91
2023-05-20T19:27:03.536Z,100219.88
2023-05-20T19:32:06.730Z,100241.75
2023-05-20T19:37:12.600Z,100261.94
2023-05-20T19:42:18.492Z,100210.16
2023-05-20T19:47:21.708Z,100228.50
2023-05-20T19:52:24.301Z,100199.63
2023-05-20T19:57:27.743Z,100242.59
2023-05-20T20:02:30.703Z,100247.81
2023-05-20T20:07:33.714Z,100187.31
2023-05-20T20:12:36.197Z,100215.34
2023-05-20T20:17:45.798Z,100226.81
2023-05-20T20:22:48.521Z,100141.75
2023-05-20T20:27:51.417Z,100117.19
2023-05-20T20:32:54.362Z,100172.41
2023-05-20T20:37:57.011Z,100211.88
2023-05-20T20:42:59.432Z,100205.75
2023-05-20T20:48:02.142Z,100176.84
2023-05-20T20:53:04.857Z,100178.53
2023-05-20T20:58:10.882Z,100169.81
2023-05-20T21:03:13.740Z,100107.63
2023-05-20T21:08:17.633Z,100155.75
2023-05-20T21:13:20.150Z,100164.56
2023-05-20T21:18:24.187Z,100090.97
2023-05-20T21:23:26.760Z,100141.81
2023-05-20T21:28:29.150Z,100124.28
2023-05-20T21:33:31.544Z,100103.25
2023-05-20T21:38:33.983Z,100142.69
2023-05-20T21:43:37.716Z,100145.31
2023-05-20T21:48:40.213Z,100075.25
2023-05-20T21:53:42.733Z,100028.88
2023-05-20T21:58:45.864Z,100010.53
2023-05-20T22:03:51.282Z,100091.94
2023-05-20T22:08:55.177Z,99998.22
2023-05-20T22:14:00.138Z,100111.19
2023-05-20T22:19:02.902Z,100104.19
2023-05-20T22:24:05.486Z,100104.16
2023-05-20T22:29:08.471Z,100105.03
2023-05-20T22:34:10.902Z,100049.91
2023-05-20T22:39:13.677Z,100021.00
2023-05-20T22:44:19.129Z,100026.28
2023-05-20T22:49:24.175Z,100052.56
2023-05-20T22:54:26.816Z,100062.25
2023-05-20T22:59:31.483Z,99974.66
2023-05-20T23:04:34.346Z,100039.47
2023-05-20T23:09:36.758Z,100045.63
2023-05-20T23:14:39.188Z,100021.13
2023-05-20T23:19:41.729Z,100000.09
2023-05-20T23:24:44.127Z,99999.22
2023-05-20T23:29:46.517Z,99961.59
2023-05-20T23:34:53.725Z,100032.50
2023-05-20T23:39:56.339Z,100026.41
2023-05-20T23:44:58.773Z,100015.88
2023-05-20T23:50:01.716Z,100020.25
2023-05-20T23:55:09.642Z,99988.75
